createdAt,value
2023-12-10T00:02:28.560Z,24.73
2023-12-10T00:04:56.468Z,25.10
2023-12-10T00:07:24.127Z,18.92
2023-12-10T00:09:51.859Z,25.77
2023-12-10T00:12:19.584Z,26.80
2023-12-10T00:14:50.637Z,24.30
2023-12-10T00:17:18.366Z,21.30
2023-12-10T00:19:47.525Z,27.50
2023-12-10T00:22:15.223Z,25.25
2023-12-10T00:24:43.907Z,25.90
2023-12-10T00:27:12.395Z,24.43
2023-12-10T00:29:40.107Z,24.17
2023-12-10T00:32:08.315Z,24.43
2023-12-10T00:34:36.109Z,20.53
2023-12-10T00:37:05.747Z,19.83
2023-12-10T00:39:33.535Z,31.40
2023-12-10T00:42:01.288Z,25.90
2023-12-10T00:44:28.982Z,25.42
2023-12-10T00:46:56.674Z,27.00
2023-12-10T00:49:24.452Z,18.50
2023-12-10T00:51:52.388Z,21.48
2023-12-10T00:54:21.538Z,27.63
2023-12-10T00:56:49.263Z,28.30
2023-12-10T00:59:17.014Z,20.83
2023-12-10T01:01:44.761Z,22.40
2023-12-10T01:04:13.088Z,26.60
2023-12-10T01:06:41.295Z,24.53
2023-12-10T01:09:09.943Z,25.15
2023-12-10T01:11:39.001Z,29.52
2023-12-10T01:14:07.550Z,36.15
2023-12-10T01:16:35.252Z,34.40
2023-12-10T01:19:02.975Z,32.33
2023-12-10T01:21:31.174Z,24.17
2023-12-10T01:23:58.953Z,30.48
2023-12-10T01:26:26.597Z,18.33
2023-12-10T01:28:55.861Z,21.03
2023-12-10T01:31:23.538Z,21.90
2023-12-10T01:33:51.528Z,20.17
2023-12-10T01:36:23.905Z,27.67
2023-12-10T01:38:51.984Z,24.93
2023-12-10T01:41:20.564Z,24.20
2023-12-10T01:43:48.372Z,27.25
2023-12-10T01:46:18.159Z,20.17
2023-12-10T01:48:48.012Z,27.30
2023-12-10T01:51:16.244Z,23.90
2023-12-10T01:53:44.177Z,24.77
2023-12-10T01:56:13.367Z,20.20
2023-12-10T01:58:41.461Z,22.08
2023-12-10T02:01:09.939Z,34.78
2023-12-10T02:03:39.303Z,35.85
2023-12-10T02:06:08.083Z,25.25
2023-12-10T02:08:35.800Z,24.65
2023-12-10T02:11:03.499Z,30.00
2023-12-10T02:13:31.587Z,20.42
2023-12-10T02:15:59.467Z,29.73
2023-12-10T02:18:27.253Z,29.47
2023-12-10T02:20:56.667Z,22.33
2023-12-10T02:23:34.551Z,20.88
2023-12-10T02:26:03.987Z,24.33
2023-12-10T02:28:32.163Z,19.40
2023-12-10T02:30:59.978Z,27.48
2023-12-10T02:33:27.829Z,23.90
2023-12-10T02:35:56.340Z,23.17
2023-12-10T02:38:24.001Z,22.17
2023-12-10T02:40:51.729Z,26.08
2023-12-10T02:43:21.680Z,21.15
2023-12-10T02:45:49.514Z,23.67
2023-12-10T02:48:22.900Z,33.30
2023-12-10T02:50:50.966Z,24.05
2023-12-10T02:53:18.767Z,23.35
2023-12-10T02:55:46.493Z,19.37
2023-12-10T02:58:14.206Z,23.27
2023-12-10T03:00:43.445Z,23.65
2023-12-10T03:03:11.206Z,17.73
2023-12-10T03:05:39.123Z,33.20
2023-12-10T03:08:06.822Z,26.98
2023-12-10T03:10:34.514Z,21.65
2023-12-10T03:13:02.226Z,18.10
2023-12-10T03:15:29.948Z,22.50
2023-12-10T03:17:59.063Z,27.75
2023-12-10T03:20:26.819Z,20.98
2023-12-10T03:22:54.502Z,23.75
2023-12-10T03:25:25.418Z,15.38
2023-12-10T03:27:54.066Z,17.70
2023-12-10T03:30:22.037Z,22.17
2023-12-10T03:32:49.767Z,13.07
2023-12-10T03:35:18.853Z,21.95
2023-12-10T03:37:46.628Z,23.98
2023-12-10T03:40:14.708Z,18.33
2023-12-10T03:42:42.478Z,17.67
2023-12-10T03:45:10.505Z,23.08
2023-12-10T03:47:38.299Z,24.88
2023-12-10T03:50:07.169Z,14.05
2023-12-10T03:52:36.220Z,22.73
2023-12-10T03:55:03.979Z,13.90
2023-12-10T03:57:31.715Z,17.83
2023-12-10T03:59:59.426Z,18.45
2023-12-10T04:02:26.378Z,21.17
2023-12-10T04:04:54.207Z,18.38
2023-12-10T04:07:22.139Z,20.17
2023-12-10T04:09:51.187Z,22.10
2023-12-10T04:12:18.917Z,15.57
2023-12-10T04:14:48.101Z,13.98
2023-12-10T04:17:15.807Z,18.17
2023-12-10T04:19:43.725Z,19.92
2023-12-10T04:22:11.468Z,19.25
2023-12-10T04:24:39.282Z,13.50
2023-12-10T04:27:08.349Z,18.17
2023-12-10T04:29:36.261Z,18.67
2023-12-10T04:32:04.177Z,26.88
2023-12-10T04:34:31.982Z,15.40
2023-12-10T04:36:59.848Z,19.17
2023-12-10T04:39:27.607Z,24.13
2023-12-10T04:41:55.355Z,19.20
2023-12-10T04:44:24.413Z,21.02
2023-12-10T04:46:52.510Z,16.80
2023-12-10T04:49:20.343Z,19.23
2023-12-10T04:51:48.237Z,19.77
2023-12-10T04:54:15.995Z,18.63
2023-12-10T04:56:43.778Z,24.33
2023-12-10T04:59:11.473Z,32.47
2023-12-10T05:01:40.552Z,15.00
2023-12-10T05:04:09.125Z,21.90
2023-12-10T05:06:37.016Z,23.52
2023-12-10T05:09:04.895Z,20.95
2023-12-10T05:11:32.691Z,17.75
2023-12-10T05:14:00.378Z,13.15
2023-12-10T05:16:28.066Z,19.83
2023-12-10T05:18:58.187Z,17.13
2023-12-10T05:21:26.362Z,20.30
2023-12-10T05:23:54.057Z,25.17
2023-12-10T05:26:21.864Z,30.35
2023-12-10T05:28:49.531Z,13.70
2023-12-10T05:31:17.206Z,17.35
2023-12-10T05:33:45.041Z,26.83
2023-12-10T05:36:14.164Z,24.98
2023-12-10T05:38:41.848Z,22.15
2023-12-10T05:41:09.535Z,23.10
2023-12-10T05:43:37.193Z,18.33
2023-12-10T05:46:05.180Z,14.68
2023-12-10T05:48:34.460Z,21.00
2023-12-10T05:51:04.448Z,21.63
2023-12-10T05:53:33.472Z,25.08
2023-12-10T05:56:01.994Z,15.15
2023-12-10T05:58:30.163Z,15.55
2023-12-10T06:00:57.947Z,19.50
2023-12-10T06:03:26.499Z,16.52
2023-12-10T06:05:54.364Z,26.65
2023-12-10T06:08:22.129Z,18.05
2023-12-10T06:10:51.158Z,16.33
2023-12-10T06:13:19.334Z,21.10
2023-12-10T06:15:47.252Z,18.80
2023-12-10T06:18:15.352Z,17.25
2023-12-10T06:20:43.106Z,19.55
2023-12-10T06:23:10.763Z,20.42
2023-12-10T06:25:38.425Z,18.52
2023-12-10T06:28:07.611Z,23.83
2023-12-10T06:30:35.339Z,21.13
2023-12-10T06:33:03.291Z,16.90
2023-12-10T06:35:31.048Z,17.95
2023-12-10T06:37:58.741Z,13.25
2023-12-10T06:40:26.560Z,17.95
2023-12-10T06:42:54.254Z,16.63
2023-12-10T06:45:23.398Z,18.27
2023-12-10T06:47:51.185Z,15.52
2023-12-10T06:50:18.917Z,15.15
2023-12-10T06:52:46.605Z,14.95
2023-12-10T06:55:14.366Z,11.85
2023-12-10T06:57:42.284Z,14.68
2023-12-10T07:00:11.452Z,18.23
2023-12-10T07:02:40.508Z,16.63
2023-12-10T07:05:08.807Z,13.98
2023-12-10T07:07:36.528Z,22.23
2023-12-10T07:10:04.769Z,21.50
2023-12-10T07:12:32.956Z,20.40
2023-12-10T07:15:01.176Z,14.65
2023-12-10T07:17:28.885Z,11.07
2023-12-10T07:19:58.010Z,11.88
2023-12-10T07:22:28.316Z,13.23
2023-12-10T07:24:56.878Z,25.02
2023-12-10T07:27:24.674Z,16.25
2023-12-10T07:29:53.516Z,19.58
2023-12-10T07:32:21.303Z,18.67
2023-12-10T07:34:49.233Z,15.50
2023-12-10T07:37:18.571Z,25.85
2023-12-10T07:39:47.578Z,10.50
2023-12-10T07:42:15.293Z,15.40
2023-12-10T07:44:42.963Z,14.82
2023-12-10T07:47:13.073Z,11.95
2023-12-10T07:49:41.723Z,12.57
2023-12-10T07:52:09.517Z,13.38
2023-12-10T07:54:39.008Z,15.90
2023-12-10T07:57:07.183Z,22.73
2023-12-10T07:59:34.954Z,23.02
2023-12-10T08:02:02.687Z,15.23
2023-12-10T08:04:30.421Z,12.70
2023-12-10T08:06:58.153Z,14.40
2023-12-10T08:09:25.870Z,15.63
2023-12-10T08:11:54.943Z,18.88
2023-12-10T08:14:26.862Z,15.60
2023-12-10T08:16:54.576Z,24.15
2023-12-10T08:19:22.487Z,14.63
2023-12-10T08:21:50.320Z,19.55
2023-12-10T08:24:18.111Z,15.40
2023-12-10T08:26:45.861Z,18.57
2023-12-10T08:29:15.082Z,24.08
2023-12-10T08:31:43.639Z,23.35
2023-12-10T08:34:11.806Z,16.80
2023-12-10T08:36:41.083Z,18.17
2023-12-10T08:39:09.833Z,11.35
2023-12-10T08:41:37.714Z,12.40
2023-12-10T08:44:05.604Z,14.20
2023-12-10T08:46:34.617Z,16.33
2023-12-10T08:49:02.409Z,21.17
2023-12-10T08:51:30.222Z,25.63
2023-12-10T08:54:00.610Z,13.70
2023-12-10T08:56:28.709Z,11.48
2023-12-10T08:58:56.378Z,10.43
2023-12-10T09:01:24.177Z,12.52
2023-12-10T09:03:53.438Z,23.20
2023-12-10T09:06:21.243Z,19.45
2023-12-10T09:08:48.994Z,22.75
2023-12-10T09:11:16.998Z,17.80
2023-12-10T09:13:44.717Z,17.42
2023-12-10T09:16:12.410Z,16.42
2023-12-10T09:18:40.332Z,19.13
2023-12-10T09:21:09.832Z,17.73
2023-12-10T09:23:37.517Z,21.15
2023-12-10T09:26:05.626Z,22.05
2023-12-10T09:28:33.365Z,17.90
2023-12-10T09:31:01.152Z,12.38
2023-12-10T09:33:28.957Z,18.93
2023-12-10T09:35:56.713Z,17.43
2023-12-10T09:38:25.746Z,14.38
2023-12-10T09:40:53.456Z,14.18
2023-12-10T09:43:21.179Z,19.48
2023-12-10T09:45:48.923Z,20.80
2023-12-10T09:48:18.633Z,20.23
2023-12-10T09:50:46.420Z,20.90
2023-12-10T09:53:14.215Z,24.70
2023-12-10T09:55:43.318Z,16.00
2023-12-10T09:58:11.788Z,19.88
2023-12-10T10:00:42.538Z,16.38
2023-12-10T10:03:12.880Z,16.37
2023-12-10T10:05:40.743Z,15.93
2023-12-10T10:08:08.473Z,17.05
2023-12-10T10:10:36.163Z,13.40
2023-12-10T10:13:07.680Z,19.45
2023-12-10T10:15:35.514Z,16.77
2023-12-10T10:18:03.545Z,12.82
2023-12-10T10:20:31.411Z,19.50
2023-12-10T10:22:59.174Z,12.35
2023-12-10T10:25:26.905Z,15.82
2023-12-10T10:27:54.679Z,19.58
2023-12-10T10:30:24.704Z,22.20
2023-12-10T10:32:53.728Z,21.00
2023-12-10T10:35:21.418Z,15.40
2023-12-10T10:37:50.107Z,14.25
2023-12-10T10:40:17.969Z,23.88
2023-12-10T10:42:47.005Z,17.65
2023-12-10T10:45:14.882Z,14.63
2023-12-10T10:47:43.964Z,19.13
2023-12-10T10:50:22.018Z,20.52
2023-12-10T10:52:54.891Z,15.20
2023-12-10T10:55:23.578Z,24.00
2023-12-10T10:57:51.381Z,19.30
2023-12-10T11:00:35.702Z,12.40
2023-12-10T11:03:06.016Z,15.70
2023-12-10T11:05:34.469Z,22.08
2023-12-10T11:08:04.904Z,18.63
2023-12-10T11:10:32.568Z,21.15
2023-12-10T11:13:01.255Z,19.60
2023-12-10T11:15:30.789Z,21.70
2023-12-10T11:18:03.801Z,22.00
2023-12-10T11:20:34.544Z,13.23
2023-12-10T11:23:04.058Z,25.33
2023-12-10T11:25:32.473Z,16.63
2023-12-10T11:28:01.540Z,15.73
2023-12-10T11:30:29.569Z,18.37
2023-12-10T11:32:57.473Z,21.40
2023-12-10T11:35:25.267Z,12.53
2023-12-10T11:37:54.341Z,25.30
2023-12-10T11:40:22.900Z,20.53
2023-12-10T11:42:50.627Z,18.23
2023-12-10T11:45:18.423Z,21.03
2023-12-10T11:47:47.624Z,20.10
2023-12-10T11:50:16.122Z,11.10
2023-12-10T11:52:43.946Z,13.77
2023-12-10T11:55:13.357Z,13.97
2023-12-10T11:57:44.878Z,15.83
2023-12-10T12:00:14.268Z,16.63
2023-12-10T12:02:43.849Z,25.60
2023-12-10T12:05:14.566Z,20.70
2023-12-10T12:07:44.196Z,17.53
2023-12-10T12:10:14.244Z,15.60
2023-12-10T12:12:44.171Z,23.63
2023-12-10T12:15:12.837Z,18.13
2023-12-10T12:17:42.261Z,14.83
2023-12-10T12:20:17.545Z,24.67
2023-12-10T12:22:48.653Z,12.27
2023-12-10T12:25:19.245Z,28.73
2023-12-10T12:27:47.670Z,13.77
2023-12-10T12:30:17.636Z,19.80
2023-12-10T12:32:45.472Z,24.70
2023-12-10T12:35:13.285Z,19.23
2023-12-10T12:37:40.974Z,19.03
2023-12-10T12:40:09.901Z,17.27
2023-12-10T12:42:39.029Z,20.47
2023-12-10T12:45:08.275Z,19.37
2023-12-10T12:47:36.491Z,14.60
2023-12-10T12:50:04.661Z,13.30
2023-12-10T12:52:32.807Z,23.23
2023-12-10T12:55:01.198Z,18.77
2023-12-10T12:57:29.256Z,15.47
2023-12-10T12:59:58.434Z,21.10
2023-12-10T13:02:26.104Z,22.30
2023-12-10T13:04:53.855Z,12.13
2023-12-10T13:07:21.688Z,22.93
2023-12-10T13:09:49.456Z,22.93
2023-12-10T13:12:17.514Z,23.30
2023-12-10T13:14:46.490Z,22.43
2023-12-10T13:17:15.571Z,15.53
2023-12-10T13:19:43.295Z,18.10
2023-12-10T13:22:11.180Z,16.17
2023-12-10T13:24:39.005Z,21.97
2023-12-10T13:27:06.977Z,33.37
2023-12-10T13:29:35.841Z,19.80
2023-12-10T13:32:03.598Z,26.17
2023-12-10T13:34:32.712Z,27.13
2023-12-10T13:37:00.562Z,27.97
2023-12-10T13:39:28.346Z,24.83
2023-12-10T13:41:56.028Z,33.50
2023-12-10T13:44:23.857Z,28.20
2023-12-10T13:46:51.549Z,34.50
2023-12-10T13:49:19.313Z,30.20
2023-12-10T13:51:48.444Z,23.80
2023-12-10T13:54:16.400Z,27.00
2023-12-10T13:56:45.075Z,43.13
2023-12-10T13:59:14.050Z,27.37
2023-12-10T14:01:41.745Z,32.70
2023-12-10T14:04:09.568Z,24.47
2023-12-10T14:06:37.369Z,27.80
2023-12-10T14:09:07.621Z,27.67
2023-12-10T14:11:41.117Z,28.43
2023-12-10T14:14:14.838Z,30.77
2023-12-10T14:16:44.810Z,26.87
2023-12-10T14:19:12.713Z,27.87
2023-12-10T14:21:40.594Z,26.83
2023-12-10T14:24:09.935Z,24.77
2023-12-10T14:26:37.593Z,22.83
2023-12-10T14:29:05.264Z,24.40
2023-12-10T14:31:33.053Z,18.80
2023-12-10T14:34:01.163Z,33.20
2023-12-10T14:36:28.949Z,28.13
2023-12-10T14:38:56.646Z,23.20
2023-12-10T14:41:25.744Z,29.17
2023-12-10T14:43:53.457Z,34.33
2023-12-10T14:46:21.128Z,29.80
2023-12-10T14:48:48.976Z,25.17
2023-12-10T14:51:16.718Z,25.17
2023-12-10T14:53:44.371Z,21.47
2023-12-10T14:56:12.960Z,18.97
2023-12-10T14:58:42.039Z,25.00
2023-12-10T15:01:09.820Z,21.53
2023-12-10T15:03:37.648Z,16.97
2023-12-10T15:06:05.977Z,24.57
2023-12-10T15:08:35.774Z,36.93
2023-12-10T15:11:03.499Z,22.83
2023-12-10T15:13:31.189Z,22.33
2023-12-10T15:16:00.205Z,23.10
2023-12-10T15:18:28.017Z,19.30
2023-12-10T15:20:55.758Z,19.93
2023-12-10T15:23:23.996Z,27.37
2023-12-10T15:25:51.723Z,20.57
2023-12-10T15:28:19.484Z,23.30
2023-12-10T15:30:47.278Z,25.83
2023-12-10T15:33:16.391Z,23.63
2023-12-10T15:35:44.772Z,21.30
2023-12-10T15:38:12.835Z,23.47
2023-12-10T15:40:40.614Z,21.63
2023-12-10T15:43:08.630Z,21.03
2023-12-10T15:45:36.369Z,26.20
2023-12-10T15:48:04.290Z,19.90
2023-12-10T15:50:35.098Z,13.50
2023-12-10T15:53:02.947Z,20.97
2023-12-10T15:55:30.820Z,15.37
2023-12-10T15:57:58.519Z,19.50
2023-12-10T16:00:26.277Z,17.17
2023-12-10T16:02:53.997Z,17.97
2023-12-10T16:05:21.746Z,16.67
2023-12-10T16:07:52.679Z,18.53
2023-12-10T16:10:21.575Z,24.33
2023-12-10T16:12:49.345Z,26.80
2023-12-10T16:15:18.015Z,17.13
2023-12-10T16:17:46.896Z,31.57
2023-12-10T16:20:14.991Z,17.73
2023-12-10T16:22:42.948Z,20.57
2023-12-10T16:25:13.078Z,18.27
2023-12-10T16:27:41.473Z,24.97
2023-12-10T16:30:10.413Z,23.53
2023-12-10T16:32:38.493Z,25.37
2023-12-10T16:35:08.467Z,27.60
2023-12-10T16:37:36.362Z,19.20
2023-12-10T16:40:05.943Z,20.67
2023-12-10T16:42:35.437Z,20.37
2023-12-10T16:45:03.446Z,20.05
2023-12-10T16:47:32.101Z,11.20
2023-12-10T16:50:00.115Z,23.50
2023-12-10T16:52:28.203Z,11.80
2023-12-10T16:54:55.882Z,15.03
2023-12-10T16:57:23.664Z,20.53
2023-12-10T16:59:53.024Z,19.37
2023-12-10T17:02:20.767Z,16.13
2023-12-10T17:04:48.522Z,18.92
2023-12-10T17:07:16.252Z,18.53
2023-12-10T17:09:43.990Z,13.93
2023-12-10T17:12:11.739Z,15.05
2023-12-10T17:14:39.439Z,11.90
2023-12-10T17:17:08.518Z,9.50
2023-12-10T17:19:36.364Z,14.05
2023-12-10T17:22:04.265Z,10.48
2023-12-10T17:24:32.025Z,19.75
2023-12-10T17:26:59.743Z,16.30
2023-12-10T17:29:27.429Z,14.50
2023-12-10T17:31:55.079Z,11.00
2023-12-10T17:34:24.097Z,10.43
2023-12-10T17:36:51.818Z,10.45
2023-12-10T17:39:19.802Z,11.38
2023-12-10T17:41:47.473Z,14.10
2023-12-10T17:44:17.929Z,13.35
2023-12-10T17:46:45.584Z,14.27
2023-12-10T17:49:13.387Z,14.93
2023-12-10T17:51:42.660Z,10.00
2023-12-10T17:54:11.436Z,13.10
2023-12-10T17:56:39.271Z,18.48
2023-12-10T17:59:07.414Z,11.93
2023-12-10T18:01:35.180Z,13.70
2023-12-10T18:04:03.185Z,7.15
2023-12-10T18:06:30.942Z,12.75
2023-12-10T18:09:00.882Z,11.85
2023-12-10T18:11:28.565Z,14.50
2023-12-10T18:13:56.403Z,13.35
2023-12-10T18:16:25.454Z,14.10
2023-12-10T18:18:53.320Z,10.00
2023-12-10T18:21:21.656Z,13.68
2023-12-10T18:23:49.536Z,13.52
2023-12-10T18:26:18.772Z,19.90
2023-12-10T18:28:46.963Z,14.15
2023-12-10T18:31:15.706Z,11.38
2023-12-10T18:33:43.545Z,17.92
2023-12-10T18:36:11.362Z,20.88
2023-12-10T18:38:39.924Z,15.20
2023-12-10T18:41:07.907Z,12.50
2023-12-10T18:43:36.920Z,8.15
2023-12-10T18:46:05.134Z,22.42
2023-12-10T18:48:33.913Z,13.30
2023-12-10T18:51:02.625Z,12.05
2023-12-10T18:53:30.338Z,16.58
2023-12-10T18:55:58.022Z,15.10
2023-12-10T18:58:25.705Z,15.20
2023-12-10T19:00:59.139Z,18.02
2023-12-10T19:03:27.924Z,19.45
2023-12-10T19:05:55.780Z,9.45
2023-12-10T19:08:23.555Z,19.75
2023-12-10T19:10:53.059Z,9.68
2023-12-10T19:13:20.798Z,13.65
2023-12-10T19:15:50.285Z,12.95
2023-12-10T19:18:20.240Z,9.68
2023-12-10T19:20:47.989Z,8.13
2023-12-10T19:23:15.739Z,14.93
2023-12-10T19:25:43.594Z,17.42
2023-12-10T19:28:11.449Z,15.10
2023-12-10T19:30:39.363Z,16.63
2023-12-10T19:33:07.345Z,15.63
2023-12-10T19:35:36.573Z,11.07
2023-12-10T19:38:04.249Z,20.33
2023-12-10T19:40:31.921Z,12.30
2023-12-10T19:42:59.649Z,10.63
2023-12-10T19:45:27.369Z,10.02
2023-12-10T19:47:55.573Z,8.73
2023-12-10T19:50:23.375Z,12.90
2023-12-10T19:52:52.432Z,6.60
2023-12-10T19:55:22.529Z,9.38
2023-12-10T19:57:50.285Z,7.18
2023-12-10T20:00:18.391Z,11.52
2023-12-10T20:02:46.436Z,9.88
2023-12-10T20:05:14.288Z,6.97
2023-12-10T20:07:42.214Z,8.43
2023-12-10T20:10:11.598Z,6.97
2023-12-10T20:12:39.508Z,5.20
2023-12-10T20:15:10.091Z,8.95
2023-12-10T20:17:40.617Z,8.48
2023-12-10T20:20:09.671Z,11.02
2023-12-10T20:22:37.356Z,8.70
2023-12-10T20:25:08.856Z,4.88
2023-12-10T20:27:40.080Z,5.65
2023-12-10T20:30:08.891Z,4.53
2023-12-10T20:32:39.597Z,3.28
2023-12-10T20:35:07.909Z,6.43
2023-12-10T20:37:35.673Z,8.52
2023-12-10T20:40:02.461Z,7.60
2023-12-10T20:42:30.289Z,4.17
2023-12-10T20:44:59.374Z,4.60
2023-12-10T20:47:27.712Z,4.90
2023-12-10T20:49:55.598Z,5.60
2023-12-10T20:52:23.261Z,3.33
2023-12-10T20:54:52.360Z,3.17
2023-12-10T20:57:20.227Z,2.23
2023-12-10T20:59:47.925Z,3.43
2023-12-10T21:02:16.954Z,4.23
2023-12-10T21:04:45.337Z,5.37
2023-12-10T21:07:13.181Z,5.40
2023-12-10T21:09:42.677Z,5.03
2023-12-10T21:12:10.582Z,4.70
2023-12-10T21:14:38.356Z,6.77
2023-12-10T21:17:10.303Z,5.30
2023-12-10T21:19:40.759Z,4.27
2023-12-10T21:22:08.581Z,4.03
2023-12-10T21:24:36.355Z,6.70
2023-12-10T21:27:04.466Z,14.23
2023-12-10T21:29:34.233Z,4.77
2023-12-10T21:32:02.031Z,5.03
2023-12-10T21:34:29.876Z,11.60
2023-12-10T21:36:59.191Z,4.53
2023-12-10T21:39:26.906Z,4.10
2023-12-10T21:41:54.606Z,4.43
2023-12-10T21:44:22.285Z,4.77
2023-12-10T21:46:50.007Z,5.73
2023-12-10T21:49:18.255Z,5.70
2023-12-10T21:51:46.037Z,4.27
2023-12-10T21:54:15.138Z,4.33
2023-12-10T21:56:42.841Z,7.53
2023-12-10T21:59:10.503Z,6.80
2023-12-10T22:01:38.504Z,5.50
2023-12-10T22:04:06.513Z,5.67
2023-12-10T22:06:34.485Z,6.20
2023-12-10T22:09:02.301Z,7.00
2023-12-10T22:11:31.621Z,10.23
2023-12-10T22:13:59.380Z,12.10
2023-12-10T22:16:27.075Z,6.33
2023-12-10T22:18:55.014Z,10.83
2023-12-10T22:21:23.163Z,10.73
2023-12-10T22:23:50.873Z,9.77
2023-12-10T22:26:18.585Z,8.70
2023-12-10T22:28:47.630Z,5.90
2023-12-10T22:31:15.419Z,7.47
2023-12-10T22:33:45.156Z,9.57
2023-12-10T22:36:13.269Z,6.43
2023-12-10T22:38:41.736Z,10.40
2023-12-10T22:41:10.037Z,9.40
2023-12-10T22:43:37.737Z,12.57
2023-12-10T22:46:07.050Z,7.63
2023-12-10T22:48:35.026Z,10.10
2023-12-10T22:51:02.874Z,7.60
2023-12-10T22:53:30.572Z,11.00
2023-12-10T22:55:59.362Z,6.90
2023-12-10T22:58:27.226Z,11.80
2023-12-10T23:00:55.010Z,10.00
2023-12-10T23:03:24.154Z,11.93
2023-12-10T23:05:51.886Z,12.00
2023-12-10T23:08:19.652Z,9.87
2023-12-10T23:10:47.417Z,9.30
2023-12-10T23:13:15.203Z,7.63
2023-12-10T23:15:42.968Z,7.50
2023-12-10T23:18:11.136Z,9.60
2023-12-10T23:20:40.251Z,7.43
2023-12-10T23:23:08.350Z,12.20
2023-12-10T23:25:36.184Z,16.80
2023-12-10T23:28:04.119Z,7.23
2023-12-10T23:30:38.520Z,10.60
2023-12-10T23:33:12.797Z,11.03
2023-12-10T23:35:41.929Z,10.83
2023-12-10T23:38:09.686Z,7.03
2023-12-10T23:40:37.502Z,15.53
2023-12-10T23:43:05.435Z,14.43
2023-12-10T23:45:33.229Z,10.17
2023-12-10T23:48:01.074Z,7.27
2023-12-10T23:50:28.799Z,13.27
2023-12-10T23:52:57.853Z,9.50
2023-12-10T23:55:25.531Z,13.77
2023-12-10T23:57:53.237Z,18.07
